Station: Munglinup West  

  Atmospheric Gas Attenuation - ITU Rec 676-11   ----------------- dB/100km -----------------
Date Time Temp RH % AH g/m3 Dew Point Wind Direction Speed kph Gust kph Barometer mB Rainfall Since 9am 24GHz 47GHz 76GHz 122GHz 134GHz 241GHz
08/05 09:20 14.7 67 8.44 8.6 20 26 1035.6 0 19.2 26.2 39.7 103.9 97.0 333.3
08/05 09:10 14.4 70 8.65 9 15 19 1035.7 0 19.6 26.6 40.7 106.5 100.1 344.4
08/05 09:00 13.9 73 8.75 9.1 20 32 1035.7 0 19.9 27.0 41.4 108.3 102.1 351.3
08/05 08:50 13.4 78 9.07 9.6 15 17 1035.7 0.2 20.6 27.6 43.0 112.5 107.2 368.8
08/05 08:40 12.8 80 8.96 9.4 15 19 1035.8 0.2 20.4 27.7 42.8 112.2 106.5 366.4
08/05 08:30 12.5 81 8.91 9.3 15 22 1035.8 0.2 20.3 27.7 42.8 112.1 106.2 365.4
08/05 08:20 12.1 83 8.9 9.4 13 17 1035.8 0.2 20.3 27.8 43.0 112.5 106.6 366.7
08/05 08:10 11.6 85 8.84 9.1 17 19 1035.7 0.2 20.2 27.8 43.0 112.5 106.5 366.1
08/05 08:00 11 87 8.71 8.9 15 22 1035.6 0.2 19.9 27.8 42.7 111.9 105.5 362.6
08/05 07:50 10.6 90 8.79 9 17 20 1035.5 0.2 20.1 28.0 43.3 113.4 107.1 368.4
08/05 07:40 10 91 8.55 8.6 15 17 1035.4 0.2 19.6 27.8 42.6 111.5 104.6 359.3
08/05 07:30 9.6 92 8.43 8.4 13 17 1035.3 0.2 19.4 27.7 42.3 110.7 103.4 355.2
08/05 07:20 9.2 93 8.31 8.1 15 19 1035.2 0.2 19.2 27.6 42.0 109.9 102.2 351.0
08/05 07:10 8.9 93 8.15 7.9 15 17 1035.1 0.2 18.8 27.5 41.4 108.5 100.4 344.4
08/05 07:00 8.5 94 8.03 7.6 13 17 1035.1 0.2 18.6 27.4 41.1 107.6 99.2 340.3
08/05 06:50 8.3 94 7.93 7.4 15 17 1035 0.2 18.4 27.3 40.8 106.8 98.0 336.2
08/05 06:40 8.1 94 7.82 7.2 15 17 1034.9 0.2 18.2 27.1 40.4 105.8 96.7 331.6
08/05 06:30 7.8 94 7.67 6.9 11 15 1034.9 0.2 17.9 27.0 40.0 104.5 95.0 325.4
08/05 06:20 7.8 94 7.67 6.9 13 15 1034.8 0.2 17.9 27.0 39.9 104.4 95.0 325.4
08/05 06:10 8.1 94 7.82 7.2 13 17 1034.7 0.2 18.2 27.1 40.4 105.7 96.7 331.5
08/05 06:00 8.1 94 7.82 7.2 13 17 1034.7 0.2 18.2 27.1 40.4 105.7 96.7 331.5
08/05 05:50 8 94 7.77 7.1 13 15 1034.6 0.2 18.1 27.1 40.3 105.3 96.1 329.4
08/05 05:40 8.1 94 7.82 7.2 13 15 1034.5 0.2 18.2 27.1 40.4 105.7 96.7 331.5
08/05 05:30 8.1 94 7.82 7.2 11 15 1034.5 0.2 18.2 27.1 40.4 105.7 96.7 331.5
08/05 05:20 8.3 93 7.84 7.2 13 15 1034.4 0.2 18.2 27.1 40.4 105.7 96.7 331.6
08/05 05:10 8.4 93 7.89 7.3 13 15 1034.3 0.2 18.3 27.1 40.6 106.1 97.3 333.6
08/05 05:00 8.5 93 7.94 7.4 13 17 1034.2 0.2 18.4 27.2 40.7 106.5 97.8 335.6
08/05 04:50 8.6 94 8.08 7.7 11 15 1034.1 0.2 18.7 27.4 41.3 108.0 99.7 342.0
08/05 04:40 8.6 94 8.08 7.7 13 17 1034.1 0 18.7 27.4 41.3 108.0 99.7 342.0
08/05 04:30 8.6 94 8.08 7.7 13 15 1034.1 0 18.7 27.4 41.3 108.0 99.7 342.0
08/05 04:20 8.6 94 8.08 7.7 13 17 1034.2 0 18.7 27.4 41.3 108.0 99.7 342.0
08/05 04:10 8.4 94 7.98 7.5 11 13 1034.1 0 18.5 27.3 40.9 107.1 98.5 338.0
08/05 04:00 8.3 94 7.93 7.4 13 15 1034.1 0 18.4 27.2 40.8 106.7 98.0 335.9
08/05 03:50 8.5 94 8.03 7.6 11 13 1034.1 0 18.6 27.3 41.1 107.5 99.1 340.0
08/05 03:40 8.6 94 8.08 7.7 13 15 1034 0 18.7 27.4 41.3 108.0 99.7 342.0
08/05 03:30 8.7 94 8.13 7.8 13 15 1034 0 18.8 27.4 41.4 108.4 100.3 344.0
08/05 03:20 8.5 94 8.03 7.6 13 15 1034 0 18.6 27.3 41.1 107.5 99.1 340.0
08/05 03:10 8.5 94 8.03 7.6 13 15 1033.9 0 18.6 27.3 41.1 107.5 99.1 339.9
08/05 03:00 8.7 93 8.05 7.6 13 17 1034 0 18.6 27.3 41.1 107.5 99.1 340.1
08/05 02:50 8.8 93 8.1 7.7 13 15 1034 0 18.7 27.4 41.2 107.9 99.7 342.1
08/05 02:40 9 93 8.2 7.9 13 15 1033.9 0 18.9 27.5 41.6 108.8 100.8 346.1
08/05 02:30 9 93 8.2 7.9 13 19 1033.9 0 18.9 27.5 41.6 108.8 100.8 346.1
08/05 02:20 9 93 8.2 7.9 13 15 1034 0 18.9 27.5 41.6 108.8 100.8 346.1
08/05 02:10 9.2 93 8.31 8.1 13 13 1034 0 19.2 27.6 41.9 109.7 102.1 350.7
08/05 02:00 9.3 92 8.27 8.1 13 17 1034 0 19.1 27.5 41.7 109.1 101.4 348.3
08/05 01:50 9.4 92 8.32 8.1 13 17 1033.8 0 19.2 27.5 41.8 109.6 102.0 350.2
08/05 01:40 9.5 92 8.38 8.2 13 17 1033.7 0 19.3 27.6 42.0 110.1 102.7 352.7
08/05 01:30 9.6 92 8.43 8.4 13 17 1033.7 0 19.4 27.7 42.2 110.5 103.3 354.7
08/05 01:20 9.8 91 8.45 8.4 13 17 1033.7 0 19.4 27.6 42.2 110.5 103.3 354.8
08/05 01:10 10 91 8.55 8.6 15 17 1033.8 0 19.6 27.8 42.5 111.3 104.4 358.8
08/05 01:00 10.1 90 8.51 8.5 15 19 1033.8 0 19.6 27.7 42.3 110.7 103.7 356.4
08/05 00:50 10.3 90 8.62 8.7 15 19 1033.7 0 19.8 27.8 42.6 111.7 105.0 360.9
08/05 00:40 10.5 90 8.73 8.9 13 17 1033.7 0 20.0 27.9 43.0 112.7 106.3 365.3
08/05 00:30 10.5 90 8.73 8.9 15 19 1033.7 0 20.0 27.9 43.0 112.7 106.3 365.3
08/05 00:20 10.5 90 8.73 8.9 13 17 1033.7 0 20.0 27.9 43.0 112.7 106.3 365.3
08/05 00:10 10.6 90 8.79 9 15 17 1033.8 0 20.1 28.0 43.2 113.2 107.0 367.9
08/05 00:00 10.6 90 8.79 9 13 17 1034 0 20.1 28.0 43.2 113.2 107.0 367.9
07/05 23:50 10.6 89 8.69 8.8 13 17 1034 0 19.9 27.8 42.8 112.1 105.6 363.0
07/05 23:40 10.6 88 8.59 8.7 15 17 1033.9 0 19.7 27.6 42.4 110.9 104.2 358.1
07/05 23:30 10.7 88 8.65 8.8 15 19 1033.9 0 19.8 27.7 42.6 111.5 104.9 360.5
07/05 23:20 10.8 87 8.6 8.7 15 19 1034 0 19.7 27.6 42.3 110.8 104.1 357.7
07/05 23:10 10.9 86 8.56 8.6 15 19 1034.1 0 19.6 27.5 42.1 110.2 103.4 355.3
07/05 23:00 11.1 86 8.66 8.8 17 20 1034.1 0 19.8 27.6 42.4 111.0 104.5 359.2
07/05 22:50 11.3 84 8.57 8.8 15 19 1034.1 0 19.6 27.4 41.9 109.8 103.0 353.9
07/05 22:40 11.1 84 8.46 8.6 15 17 1034 0 19.4 27.3 41.6 108.8 101.7 349.5
07/05 22:30 11.2 84 8.52 8.6 13 17 1034 0 19.5 27.3 41.8 109.3 102.4 351.9
07/05 22:20 11.1 84 8.46 8.5 13 17 1034.1 0 19.4 27.3 41.6 108.8 101.7 349.5
07/05 22:10 10.9 83 8.26 8.1 13 15 1034.1 0 19.0 27.0 40.8 106.8 99.2 340.7
07/05 22:00 10.8 81 8.01 7.7 13 15 1034.1 0 18.5 26.6 39.8 104.2 95.9 329.2
07/05 21:50 11.3 79 8.06 7.8 13 13 1034.1 0 18.5 26.5 39.8 104.1 96.0 329.4
07/05 21:40 12 77 8.21 8.2 13 15 1034.2 0 18.8 26.6 40.1 104.8 97.2 333.6
07/05 21:30 12.1 77 8.26 8.2 11 15 1034.2 0 18.9 26.6 40.2 105.2 97.7 335.6
07/05 21:20 12.4 76 8.3 8.3 9 11 1034 0 19.0 26.6 40.2 105.2 97.9 336.1
07/05 21:10 12.8 74 8.29 8.4 11 13 1033.9 0 19.0 26.5 40.0 104.6 97.2 333.9
07/05 21:00 13 74 8.39 8.5 13 17 1033.8 0 19.2 26.6 40.3 105.4 98.3 337.8
07/05 20:50 13.1 73 8.33 8.5 13 15 1033.8 0 19.0 26.4 40.0 104.6 97.4 334.5
07/05 20:40 13.4 73 8.49 8.6 9 11 1033.8 0 19.4 26.6 40.5 106.0 99.1 340.7
07/05 20:30 13.7 73 8.64 9 13 19 1033.8 0 19.7 26.8 40.9 107.2 100.8 346.5
07/05 20:20 13.7 73 8.64 8.9 11 15 1033.8 0 19.7 26.8 40.9 107.2 100.8 346.5
07/05 20:10 13.7 72 8.53 8.7 13 15 1033.9 0 19.4 26.6 40.5 106.0 99.3 341.3
07/05 20:00 13.8 72 8.58 8.8 13 19 1034 0 19.5 26.6 40.6 106.4 99.8 343.3
07/05 19:50 13.9 72 8.63 8.9 15 17 1034 0 19.6 26.7 40.8 106.8 100.4 345.2
07/05 19:40 13.9 71 8.51 8.7 13 17 1034 0 19.4 26.5 40.3 105.5 98.8 339.6
07/05 19:30 14 71 8.56 8.8 13 20 1034 0 19.5 26.6 40.5 105.9 99.3 341.5
07/05 19:20 14.1 70 8.5 8.7 13 15 1033.9 0 19.3 26.4 40.2 105.1 98.4 338.2
07/05 19:10 14.1 70 8.5 8.7 13 17 1033.9 0 19.3 26.4 40.2 105.1 98.4 338.2
07/05 19:00 14.1 68 8.25 8.3 17 22 1033.9 0 18.8 26.0 39.2 102.5 95.1 326.6
07/05 18:50 14.4 67 8.28 8.5 17 19 1033.8 0 18.9 26.0 39.1 102.4 95.1 326.7
07/05 18:40 14.4 69 8.53 8.8 15 19 1033.8 0 19.4 26.4 40.1 105.0 98.4 338.3
07/05 18:30 14.3 71 8.72 9.1 15 20 1033.7 0 19.8 26.7 40.9 107.2 101.0 347.6
07/05 18:20 14.3 71 8.72 9.1 15 19 1033.7 0 19.8 26.7 40.9 107.2 101.0 347.6
07/05 18:10 14.4 70 8.65 9 13 15 1033.6 0 19.6 26.6 40.6 106.3 100.0 343.8
07/05 18:00 14.7 69 8.69 9.1 15 24 1033.6 0 19.7 26.5 40.6 106.3 100.1 344.4
07/05 17:50 14.8 68 8.61 9.1 15 17 1033.5 0 19.5 26.4 40.2 105.3 98.9 340.2
07/05 17:40 14.8 69 8.74 9.3 17 19 1033.5 0 19.8 26.6 40.8 106.7 100.6 346.2
07/05 17:30 14.9 70 8.92 9.5 17 22 1033.4 0 20.2 26.9 41.4 108.5 102.9 354.1
07/05 17:20 15 69 8.85 9.5 13 13 1033.4 0 20.0 26.7 41.1 107.6 101.8 350.4
07/05 17:10 15.2 69 8.96 9.7 13 17 1033.3 0 20.3 26.8 41.4 108.5 103.0 354.6
07/05 17:00 15.2 68 8.83 9.3 17 22 1033.3 0 20.0 26.6 40.9 107.1 101.3 348.6
07/05 16:50 15.4 67 8.8 9.3 17 22 1033.2 0 19.9 26.5 40.7 106.5 100.6 346.3

Last Refresh: 08-May-2026 11:04:01

Bureau of Meteorology